Time;durP1;ratioP1;P1;durP2;ratioP2;P2;SDS_P1;SDS_P2;PMS_P1;PMS_P2;Temp;Humidity;BMP_temperature;BMP_pressure;BME280_temperature;BME280_humidity;BME280_pressure;Samples;Min_cycle;Max_cycle;Signal;HPM_P1;HPM_P2
2022/11/21 00:01:40;;;;;;;;;;;;;;;;;;5053238;28;19955;-59
2022/11/21 00:04:06;;;;;;;;;;;;;;;;;;5052866;28;20007;-59
2022/11/21 00:06:32;;;;;;;;;;;;;;;;;;5053666;28;19924;-59
2022/11/21 00:08:58;;;;;;;;;;;;;;;;;;5053128;28;19982;-59
2022/11/21 00:11:24;;;;;;;;;;;;;;;;;;5051962;28;20376;-59
2022/11/21 00:13:50;;;;;;;;;;;;;;;;;;5053504;28;19955;-59
2022/11/21 00:16:16;;;;;;;;;;;;;;;;;;5052758;28;19960;-59
2022/11/21 00:18:42;;;;;;;;;;;;;;;;;;5042078;28;20420;-59
2022/11/21 00:21:08;;;;;;;;;;;;;;;;;;5051446;28;19921;-59
2022/11/21 00:23:34;;;;;;;;;;;;;;;;;;5059398;28;20443;-60
2022/11/21 00:26:00;;;;;;;;;;;;;;;;;;5057178;28;19917;-58
2022/11/21 00:28:26;;;;;;;;;;;;;;;;;;5052817;28;20010;-59
2022/11/21 00:30:52;;;;;;;;;;;;;;;;;;5051335;28;19967;-59
2022/11/21 00:33:18;;;;;;;;;;;;;;;;;;5053543;28;20032;-59
2022/11/21 00:35:44;;;;;;;;;;;;;;;;;;5035627;28;20682;-59
2022/11/21 00:38:09;;;;;;;;;;;;;;;;;;5051770;28;19913;-59
2022/11/21 00:40:35;;;;;;;;;;;;;;;;;;5052047;28;19982;-59
2022/11/21 00:43:01;;;;;;;;;;;;;;;;;;5054405;28;19909;-59
2022/11/21 00:45:27;;;;;;;;;;;;;;;;;;5052796;28;19974;-59
2022/11/21 00:47:53;;;;;;;;;;;;;;;;;;5047067;28;19939;-60
2022/11/21 00:50:19;;;;;;;;;;;;;;;;;;5048423;28;19913;-60
2022/11/21 00:52:45;;;;;;;;;;;;;;;;;;5052273;28;19917;-59
2022/11/21 00:55:11;;;;;;;;;;;;;;;;;;5050969;28;19940;-59
2022/11/21 00:57:37;;;;;;;;;;;;;;;;;;5053040;28;19951;-59
2022/11/21 01:00:03;;;;;;;;;;;;;;;;;;5051773;28;20375;-59
2022/11/21 01:02:29;;;;;;;;;;;;;;;;;;5052959;28;20394;-59
2022/11/21 01:04:54;;;;;;;;;;;;;;;;;;5050785;28;20023;-59
2022/11/21 01:07:20;;;;;;;;;;;;;;;;;;5052854;28;20502;-59
2022/11/21 01:09:47;;;;;;;;;;;;;;;;;;5050732;28;19982;-59
2022/11/21 01:12:12;;;;;;;;;;;;;;;;;;5053799;28;20375;-59
2022/11/21 01:14:38;;;;;;;;;;;;;;;;;;5052195;28;19924;-59
2022/11/21 01:17:04;;;;;;;;;;;;;;;;;;5052874;28;19963;-59
2022/11/21 01:19:30;;;;;;;;;;;;;;;;;;5052695;28;19913;-59
2022/11/21 01:21:56;;;;;;;;;;;;;;;;;;5050107;28;19917;-59
2022/11/21 01:24:22;;;;;;;;;;;;;;;;;;5050255;28;20066;-59
2022/11/21 01:26:49;;;;;;;;;;;;;;;;;;5051097;28;19974;-59
2022/11/21 01:29:15;;;;;;;;;;;;;;;;;;5052570;28;19939;-59
2022/11/21 01:31:41;;;;;;;;;;;;;;;;;;5051989;28;19913;-59
2022/11/21 01:34:07;;;;;;;;;;;;;;;;;;5052414;28;19923;-59
2022/11/21 01:36:33;;;;;;;;;;;;;;;;;;5052603;28;20368;-59
2022/11/21 01:38:59;;;;;;;;;;;;;;;;;;5051742;28;19923;-59
2022/11/21 01:41:25;;;;;;;;;;;;;;;;;;5050989;28;20245;-59
2022/11/21 01:43:51;;;;;;;;;;;;;;;;;;5052150;28;19958;-59
2022/11/21 01:46:17;;;;;;;;;;;;;;;;;;5052407;28;19958;-59
2022/11/21 01:48:43;;;;;;;;;;;;;;;;;;5052180;28;19959;-59
2022/11/21 01:51:09;;;;;;;;;;;;;;;;;;5051645;28;19955;-59
2022/11/21 01:53:35;;;;;;;;;;;;;;;;;;5052031;28;19990;-59
2022/11/21 01:56:01;;;;;;;;;;;;;;;;;;5049737;28;19948;-59
2022/11/21 01:58:27;;;;;;;;;;;;;;;;;;5046033;28;20391;-59
2022/11/21 02:00:53;;;;;;;;;;;;;;;;;;5051994;28;19966;-59
2022/11/21 02:03:18;;;;;;;;;;;;;;;;;;5050584;28;19916;-59
2022/11/21 02:05:44;;;;;;;;;;;;;;;;;;5051182;28;19979;-57
2022/11/21 02:08:10;;;;;;;;;;;;;;;;;;5050840;28;19977;-60
2022/11/21 02:10:36;;;;;;;;;;;;;;;;;;5045948;28;20435;-59
2022/11/21 02:13:02;;;;;;;;;;;;;;;;;;5048424;28;20003;-59
2022/11/21 02:15:28;;;;;;;;;;;;;;;;;;5051264;28;19982;-59
2022/11/21 02:17:54;;;;;;;;;;;;;;;;;;5050947;28;19945;-59
2022/11/21 02:20:20;;;;;;;;;;;;;;;;;;5051331;28;19951;-60
2022/11/21 02:22:48;;;;;;;;;;;;;;;;;;5051026;28;19995;-59
2022/11/21 02:25:13;;;;;;;;;;;;;;;;;;5047435;28;19932;-59
2022/11/21 02:27:39;;;;;;;;;;;;;;;;;;5049522;28;19917;-59
2022/11/21 02:30:05;;;;;;;;;;;;;;;;;;5035629;28;19913;-59
2022/11/21 02:32:31;;;;;;;;;;;;;;;;;;5051368;28;20244;-59
2022/11/21 02:34:57;;;;;;;;;;;;;;;;;;5049201;28;19962;-59
2022/11/21 02:37:23;;;;;;;;;;;;;;;;;;5049434;28;19975;-60
2022/11/21 02:39:49;;;;;;;;;;;;;;;;;;5048902;28;19973;-60
2022/11/21 02:42:15;;;;;;;;;;;;;;;;;;5047591;28;19913;-59
2022/11/21 02:44:41;;;;;;;;;;;;;;;;;;5051178;28;19913;-59
2022/11/21 02:47:06;;;;;;;;;;;;;;;;;;5049914;28;19959;-59
2022/11/21 02:49:32;;;;;;;;;;;;;;;;;;5050667;28;19920;-60
2022/11/21 02:51:58;;;;;;;;;;;;;;;;;;5049467;28;20299;-60
2022/11/21 02:54:24;;;;;;;;;;;;;;;;;;5051273;28;19975;-59
2022/11/21 02:56:50;;;;;;;;;;;;;;;;;;5050044;28;19944;-60
2022/11/21 02:59:16;;;;;;;;;;;;;;;;;;5048558;28;20406;-59
2022/11/21 03:01:42;;;;;;;;;;;;;;;;;;5050559;28;19956;-59
2022/11/21 03:04:08;;;;;;;;;;;;;;;;;;5050673;28;19913;-60
2022/11/21 03:06:34;;;;;;;;;;;;;;;;;;5048703;28;20047;-59
2022/11/21 03:09:00;;;;;;;;;;;;;;;;;;5052291;28;19920;-58
2022/11/21 03:11:25;;;;;;;;;;;;;;;;;;5054619;28;19916;-59
2022/11/21 03:13:51;;;;;;;;;;;;;;;;;;5055243;28;20371;-59
2022/11/21 03:16:17;;;;;;;;;;;;;;;;;;5037945;28;19999;-59
2022/11/21 03:18:43;;;;;;;;;;;;;;;;;;5054837;28;19920;-59
2022/11/21 03:21:09;;;;;;;;;;;;;;;;;;5051966;28;19974;-59
2022/11/21 03:23:35;;;;;;;;;;;;;;;;;;5054491;28;19916;-59
2022/11/21 03:26:01;;;;;;;;;;;;;;;;;;5053160;28;20401;-59
2022/11/21 03:28:27;;;;;;;;;;;;;;;;;;5054563;28;19913;-58
2022/11/21 03:30:53;;;;;;;;;;;;;;;;;;5054090;28;20008;-59
2022/11/21 03:33:18;;;;;;;;;;;;;;;;;;5054170;28;19948;-60
2022/11/21 03:35:44;;;;;;;;;;;;;;;;;;5054051;28;19955;-60
2022/11/21 03:38:10;;;;;;;;;;;;;;;;;;5050457;28;20396;-58
2022/11/21 03:40:36;;;;;;;;;;;;;;;;;;5061423;28;19913;-59
2022/11/21 03:43:02;;;;;;;;;;;;;;;;;;5053584;28;20335;-60
2022/11/21 03:45:28;;;;;;;;;;;;;;;;;;5054202;28;19959;-59
2022/11/21 03:47:54;;;;;;;;;;;;;;;;;;5051488;28;19956;-59
2022/11/21 03:50:20;;;;;;;;;;;;;;;;;;5045819;28;20291;-59
2022/11/21 03:52:46;;;;;;;;;;;;;;;;;;5054347;28;20261;-59
2022/11/21 03:55:12;;;;;;;;;;;;;;;;;;5053136;28;19959;-59
2022/11/21 03:57:38;;;;;;;;;;;;;;;;;;5055053;28;20008;-60
2022/11/21 04:00:04;;;;;;;;;;;;;;;;;;5051286;28;19924;-59
2022/11/21 04:02:29;;;;;;;;;;;;;;;;;;5053461;28;19955;-59
2022/11/21 04:04:55;;;;;;;;;;;;;;;;;;5053416;28;20369;-59
2022/11/21 04:07:21;;;;;;;;;;;;;;;;;;5053719;28;19931;-60
2022/11/21 04:09:47;;;;;;;;;;;;;;;;;;5054042;28;20440;-60
2022/11/21 04:12:13;;;;;;;;;;;;;;;;;;5053993;28;19996;-60
2022/11/21 04:14:39;;;;;;;;;;;;;;;;;;5053312;28;19925;-59
2022/11/21 04:17:05;;;;;;;;;;;;;;;;;;5052444;28;19920;-59
2022/11/21 04:19:31;;;;;;;;;;;;;;;;;;5043726;28;19921;-59
2022/11/21 04:21:57;;;;;;;;;;;;;;;;;;5053395;28;19952;-59
2022/11/21 04:24:23;;;;;;;;;;;;;;;;;;5035657;28;20455;-59
2022/11/21 04:26:49;;;;;;;;;;;;;;;;;;5053967;28;19920;-59
2022/11/21 04:29:15;;;;;;;;;;;;;;;;;;5052345;28;19944;-60
2022/11/21 04:31:41;;;;;;;;;;;;;;;;;;5052207;28;19951;-59
2022/11/21 04:34:06;;;;;;;;;;;;;;;;;;5032377;28;20012;-59
2022/11/21 04:36:32;;;;;;;;;;;;;;;;;;5052999;28;20386;-59
2022/11/21 04:38:58;;;;;;;;;;;;;;;;;;5038784;28;20023;-60
2022/11/21 04:41:24;;;;;;;;;;;;;;;;;;5053483;28;20012;-57
2022/11/21 04:43:50;;;;;;;;;;;;;;;;;;5049063;28;20352;-59
2022/11/21 04:46:16;;;;;;;;;;;;;;;;;;5053663;28;20008;-59
2022/11/21 04:48:42;;;;;;;;;;;;;;;;;;5052397;28;19948;-59
2022/11/21 04:51:08;;;;;;;;;;;;;;;;;;5051081;28;20003;-60
2022/11/21 04:53:34;;;;;;;;;;;;;;;;;;5053075;28;19913;-60
2022/11/21 04:56:00;;;;;;;;;;;;;;;;;;5052376;28;19951;-60
2022/11/21 04:58:26;;;;;;;;;;;;;;;;;;5052071;28;19912;-60
2022/11/21 05:00:51;;;;;;;;;;;;;;;;;;5051923;28;20359;-59
2022/11/21 05:03:17;;;;;;;;;;;;;;;;;;5050425;28;20356;-60
2022/11/21 05:05:43;;;;;;;;;;;;;;;;;;5049657;28;19927;-59
2022/11/21 05:08:09;;;;;;;;;;;;;;;;;;5046472;28;19924;-59
2022/11/21 05:13:19;;;;;;;;;;;;;;;;;;5051021;28;20000;-59
2022/11/21 05:13:21;;;;;;;;;;;;;;;;;;5052980;28;19947;-59
2022/11/21 05:15:50;;;;;;;;;;;;;;;;;;5052376;28;20436;-59
2022/11/21 05:18:18;;;;;;;;;;;;;;;;;;5050814;28;21663;-59
2022/11/21 05:20:44;;;;;;;;;;;;;;;;;;5049522;28;19920;-59
2022/11/21 05:23:10;;;;;;;;;;;;;;;;;;5051997;28;20357;-60
2022/11/21 05:25:36;;;;;;;;;;;;;;;;;;5051156;28;19963;-59
2022/11/21 05:28:02;;;;;;;;;;;;;;;;;;5049710;28;20265;-59
2022/11/21 05:30:28;;;;;;;;;;;;;;;;;;5049507;28;19917;-59
2022/11/21 05:32:54;;;;;;;;;;;;;;;;;;5038712;28;20002;-60
2022/11/21 05:35:19;;;;;;;;;;;;;;;;;;5050798;28;19959;-59
2022/11/21 05:37:45;;;;;;;;;;;;;;;;;;5048986;28;20335;-58
2022/11/21 05:40:11;;;;;;;;;;;;;;;;;;5051714;28;19931;-60
2022/11/21 05:45:22;;;;;;;;;;;;;;;;;;5049669;28;19958;-59
2022/11/21 05:47:48;;;;;;;;;;;;;;;;;;5051256;28;19971;-59
2022/11/21 05:50:14;;;;;;;;;;;;;;;;;;5048651;28;20417;-58
2022/11/21 05:52:40;;;;;;;;;;;;;;;;;;5048907;28;19917;-59
2022/11/21 05:55:05;;;;;;;;;;;;;;;;;;5050631;28;19921;-59
2022/11/21 05:57:31;;;;;;;;;;;;;;;;;;5052321;28;19967;-60
2022/11/21 05:59:57;;;;;;;;;;;;;;;;;;5050245;28;19912;-59
2022/11/21 06:05:07;;;;;;;;;;;;;;;;;;5050861;28;19967;-60
2022/11/21 06:07:33;;;;;;;;;;;;;;;;;;5051278;28;20342;-59
2022/11/21 06:09:59;;;;;;;;;;;;;;;;;;5048575;28;19917;-59
2022/11/21 06:12:25;;;;;;;;;;;;;;;;;;5052393;28;19908;-59
2022/11/21 06:14:51;;;;;;;;;;;;;;;;;;5048267;28;20380;-60
2022/11/21 06:17:17;;;;;;;;;;;;;;;;;;5051958;28;20003;-59
2022/11/21 06:19:43;;;;;;;;;;;;;;;;;;5045284;28;19956;-58
2022/11/21 06:22:09;;;;;;;;;;;;;;;;;;5051160;28;19967;-59
2022/11/21 06:24:35;;;;;;;;;;;;;;;;;;5051181;28;19917;-58
2022/11/21 06:27:01;;;;;;;;;;;;;;;;;;5048908;28;19920;-58
2022/11/21 06:29:26;;;;;;;;;;;;;;;;;;5051489;28;20291;-58
2022/11/21 06:31:54;;;;;;;;;;;;;;;;;;5047614;28;19940;-58
2022/11/21 06:34:20;;;;;;;;;;;;;;;;;;5050080;28;20676;-58
2022/11/21 06:36:46;;;;;;;;;;;;;;;;;;5050008;28;19948;-57
2022/11/21 06:39:12;;;;;;;;;;;;;;;;;;5050982;28;20221;-58
2022/11/21 06:41:38;;;;;;;;;;;;;;;;;;5051249;28;19962;-59
2022/11/21 06:44:04;;;;;;;;;;;;;;;;;;5051500;28;19915;-58
2022/11/21 06:46:30;;;;;;;;;;;;;;;;;;5048223;28;20376;-58
2022/11/21 06:48:56;;;;;;;;;;;;;;;;;;5056016;28;19919;-58
2022/11/21 06:51:22;;;;;;;;;;;;;;;;;;5051707;28;20268;-58
2022/11/21 06:53:48;;;;;;;;;;;;;;;;;;5033539;28;19975;-58
2022/11/21 06:56:14;;;;;;;;;;;;;;;;;;5051731;28;20000;-58
2022/11/21 06:58:40;;;;;;;;;;;;;;;;;;5051894;28;19996;-58
2022/11/21 07:01:06;;;;;;;;;;;;;;;;;;5038704;28;19931;-59
2022/11/21 07:03:32;;;;;;;;;;;;;;;;;;5054873;28;20435;-58
2022/11/21 07:06:00;;;;;;;;;;;;;;;;;;5050980;28;19959;-58
2022/11/21 07:08:26;;;;;;;;;;;;;;;;;;5051334;28;20272;-57
2022/11/21 07:10:52;;;;;;;;;;;;;;;;;;5051323;28;19916;-57
2022/11/21 07:13:21;;;;;;;;;;;;;;;;;;5051261;28;19958;-58
2022/11/21 07:15:47;;;;;;;;;;;;;;;;;;5051335;28;19995;-58
2022/11/21 07:18:13;;;;;;;;;;;;;;;;;;5049313;28;20003;-59
2022/11/21 07:20:38;;;;;;;;;;;;;;;;;;5050203;28;19944;-58
2022/11/21 07:23:04;;;;;;;;;;;;;;;;;;5051044;28;20131;-58
2022/11/21 07:25:30;;;;;;;;;;;;;;;;;;5044229;28;19962;-57
2022/11/21 07:27:56;;;;;;;;;;;;;;;;;;5048378;28;19917;-60
2022/11/21 07:30:22;;;;;;;;;;;;;;;;;;5050953;28;19940;-58
2022/11/21 07:32:48;;;;;;;;;;;;;;;;;;5051472;28;19908;-57
2022/11/21 07:35:14;;;;;;;;;;;;;;;;;;5050823;28;19909;-60
2022/11/21 07:37:40;;;;;;;;;;;;;;;;;;5048978;28;19917;-60
2022/11/21 07:40:06;;;;;;;;;;;;;;;;;;5046405;28;19956;-58
2022/11/21 07:42:31;;;;;;;;;;;;;;;;;;5051280;28;19909;-58
2022/11/21 07:44:57;;;;;;;;;;;;;;;;;;5038000;28;19919;-58
2022/11/21 07:47:23;;;;;;;;;;;;;;;;;;5051051;28;19913;-60
2022/11/21 07:49:49;;;;;;;;;;;;;;;;;;5048495;28;19952;-60
2022/11/21 07:52:15;;;;;;;;;;;;;;;;;;5044782;28;20430;-61
2022/11/21 07:54:41;;;;;;;;;;;;;;;;;;5049845;28;19913;-58
2022/11/21 07:57:07;;;;;;;;;;;;;;;;;;5054188;28;19998;-60
2022/11/21 07:59:33;;;;;;;;;;;;;;;;;;5050940;28;20279;-57
2022/11/21 08:01:59;;;;;;;;;;;;;;;;;;5052082;28;20143;-58
2022/11/21 08:04:25;;;;;;;;;;;;;;;;;;5052104;28;19923;-58
2022/11/21 08:06:51;;;;;;;;;;;;;;;;;;5035104;28;19924;-60
2022/11/21 08:09:17;;;;;;;;;;;;;;;;;;5052852;28;19944;-58
2022/11/21 08:11:42;;;;;;;;;;;;;;;;;;5052887;28;19952;-58
2022/11/21 08:14:08;;;;;;;;;;;;;;;;;;5048995;28;19959;-58
2022/11/21 08:16:34;;;;;;;;;;;;;;;;;;5053375;28;20410;-58
2022/11/21 08:19:00;;;;;;;;;;;;;;;;;;5045305;28;20406;-57
2022/11/21 08:21:26;;;;;;;;;;;;;;;;;;5049495;28;19966;-58
2022/11/21 08:23:52;;;;;;;;;;;;;;;;;;5052483;28;19916;-56
2022/11/21 08:26:18;;;;;;;;;;;;;;;;;;5053406;28;19917;-58
2022/11/21 08:28:44;;;;;;;;;;;;;;;;;;5052663;28;19912;-60
2022/11/21 08:31:10;;;;;;;;;;;;;;;;;;5053637;28;20039;-60
2022/11/21 08:33:36;;;;;;;;;;;;;;;;;;5044558;28;19955;-58
2022/11/21 08:36:02;;;;;;;;;;;;;;;;;;5047145;28;20047;-57
2022/11/21 08:38:28;;;;;;;;;;;;;;;;;;5047737;28;19917;-58
2022/11/21 08:42:01;;;;;;;;;;;;;;;;;;5042521;28;19960;-58
2022/11/21 08:43:39;;;;;;;;;;;;;;;;;;5047448;28;19970;-58
2022/11/21 08:46:05;;;;;;;;;;;;;;;;;;5046715;28;19963;-58
2022/11/21 08:48:31;;;;;;;;;;;;;;;;;;5047243;28;19974;-58
2022/11/21 08:50:57;;;;;;;;;;;;;;;;;;5045778;28;19921;-58
2022/11/21 08:53:23;;;;;;;;;;;;;;;;;;5046403;28;19908;-57
2022/11/21 08:55:49;;;;;;;;;;;;;;;;;;5045976;28;20299;-58
2022/11/21 08:58:15;;;;;;;;;;;;;;;;;;5048295;28;19941;-58
2022/11/21 09:00:41;;;;;;;;;;;;;;;;;;5046934;28;19986;-58
2022/11/21 09:03:06;;;;;;;;;;;;;;;;;;5048123;28;19934;-58
2022/11/21 09:05:32;;;;;;;;;;;;;;;;;;5043568;28;19918;-59
2022/11/21 09:07:58;;;;;;;;;;;;;;;;;;5043644;28;19955;-58
2022/11/21 09:10:24;;;;;;;;;;;;;;;;;;5041699;28;19956;-58
2022/11/21 09:12:50;;;;;;;;;;;;;;;;;;5044925;28;19909;-58
2022/11/21 09:18:04;;;;;;;;;;;;;;;;;;5044632;28;20452;-59
2022/11/21 09:20:29;;;;;;;;;;;;;;;;;;5044269;28;20012;-58
2022/11/21 09:22:55;;;;;;;;;;;;;;;;;;5046297;28;20000;-58
2022/11/21 09:25:21;;;;;;;;;;;;;;;;;;5046004;28;20411;-59
2022/11/21 09:27:47;;;;;;;;;;;;;;;;;;5043580;28;19921;-58
2022/11/21 09:30:13;;;;;;;;;;;;;;;;;;5044277;28;20327;-58
2022/11/21 09:32:39;;;;;;;;;;;;;;;;;;5045579;28;19982;-58
2022/11/21 09:35:05;;;;;;;;;;;;;;;;;;5048589;28;19916;-59
2022/11/21 09:37:31;;;;;;;;;;;;;;;;;;5047986;28;19921;-59
2022/11/21 09:39:57;;;;;;;;;;;;;;;;;;5041130;28;19924;-58
2022/11/21 09:42:23;;;;;;;;;;;;;;;;;;5047093;28;20280;-58
2022/11/21 09:44:49;;;;;;;;;;;;;;;;;;5052738;28;19909;-58
2022/11/21 09:47:15;;;;;;;;;;;;;;;;;;5051127;28;20071;-59
2022/11/21 09:49:41;;;;;;;;;;;;;;;;;;5052321;28;19913;-58
2022/11/21 09:52:06;;;;;;;;;;;;;;;;;;5047357;28;19921;-59
2022/11/21 09:54:32;;;;;;;;;;;;;;;;;;5049900;28;19916;-58
2022/11/21 09:56:59;;;;;;;;;;;;;;;;;;5051713;28;19955;-59
2022/11/21 09:59:25;;;;;;;;;;;;;;;;;;5050794;28;19958;-58
2022/11/21 10:01:51;;;;;;;;;;;;;;;;;;5033744;28;19952;-58
2022/11/21 10:04:17;;;;;;;;;;;;;;;;;;5052293;28;19919;-58
2022/11/21 10:06:43;;;;;;;;;;;;;;;;;;5051321;28;19917;-58
2022/11/21 10:09:09;;;;;;;;;;;;;;;;;;5052215;28;19955;-58
2022/11/21 10:11:35;;;;;;;;;;;;;;;;;;5050730;28;19923;-59
2022/11/21 10:14:00;;;;;;;;;;;;;;;;;;5046173;28;20372;-58
2022/11/21 10:16:26;;;;;;;;;;;;;;;;;;5051511;28;19963;-58
2022/11/21 10:18:52;;;;;;;;;;;;;;;;;;5050933;28;19956;-57
2022/11/21 10:21:18;;;;;;;;;;;;;;;;;;5049860;28;20057;-58
2022/11/21 10:23:44;;;;;;;;;;;;;;;;;;5051877;28;19985;-58
2022/11/21 10:26:10;;;;;;;;;;;;;;;;;;5051720;28;19921;-58
2022/11/21 10:28:36;;;;;;;;;;;;;;;;;;5050433;28;20339;-58
2022/11/21 10:31:02;;;;;;;;;;;;;;;;;;5050126;28;19943;-58
2022/11/21 10:33:28;;;;;;;;;;;;;;;;;;5051622;28;19913;-59
2022/11/21 10:35:53;;;;;;;;;;;;;;;;;;5051788;28;19939;-58
2022/11/21 10:38:19;;;;;;;;;;;;;;;;;;5051933;28;19959;-59
2022/11/21 10:40:46;;;;;;;;;;;;;;;;;;5051038;28;19940;-58
2022/11/21 10:45:56;;;;;;;;;;;;;;;;;;5049244;28;19924;-59
2022/11/21 10:48:22;;;;;;;;;;;;;;;;;;5050660;28;19916;-58
2022/11/21 10:50:48;;;;;;;;;;;;;;;;;;5051363;28;20020;-59
2022/11/21 10:55:59;;;;;;;;;;;;;;;;;;5038874;28;19975;-58
2022/11/21 10:58:24;;;;;;;;;;;;;;;;;;5051629;28;20387;-60
2022/11/21 11:00:50;;;;;;;;;;;;;;;;;;5050420;28;20395;-58
2022/11/21 11:03:16;;;;;;;;;;;;;;;;;;5050387;28;19964;-58
2022/11/21 11:05:42;;;;;;;;;;;;;;;;;;5051853;28;19913;-58
2022/11/21 11:08:08;;;;;;;;;;;;;;;;;;5051681;28;19955;-58
2022/11/21 11:10:34;;;;;;;;;;;;;;;;;;5049696;28;19959;-58
2022/11/21 11:15:45;;;;;;;;;;;;;;;;;;5041233;28;19942;-58
2022/11/21 11:18:11;;;;;;;;;;;;;;;;;;5051235;28;20365;-57
2022/11/21 11:20:37;;;;;;;;;;;;;;;;;;5050923;28;19967;-59
2022/11/21 11:23:03;;;;;;;;;;;;;;;;;;5051077;28;20246;-57
2022/11/21 11:25:29;;;;;;;;;;;;;;;;;;5051145;28;19917;-59
2022/11/21 11:27:55;;;;;;;;;;;;;;;;;;5049937;28;20014;-58
2022/11/21 11:30:20;;;;;;;;;;;;;;;;;;5053334;28;20007;-58
2022/11/21 11:32:46;;;;;;;;;;;;;;;;;;5055471;28;20011;-58
2022/11/21 11:35:12;;;;;;;;;;;;;;;;;;5054608;28;20003;-59
2022/11/21 11:37:38;;;;;;;;;;;;;;;;;;5055172;28;19916;-58
2022/11/21 11:40:04;;;;;;;;;;;;;;;;;;5054423;28;20343;-58
2022/11/21 11:47:59;;;;;;;;;;;;;;;;;;5054436;28;19924;-59
2022/11/21 11:50:25;;;;;;;;;;;;;;;;;;5054390;28;19955;-59
2022/11/21 11:52:51;;;;;;;;;;;;;;;;;;5050341;28;19955;-58
2022/11/21 11:55:17;;;;;;;;;;;;;;;;;;5051913;28;20015;-59
2022/11/21 11:57:43;;;;;;;;;;;;;;;;;;5054759;28;19921;-59
2022/11/21 12:00:09;;;;;;;;;;;;;;;;;;5042905;28;20011;-59
2022/11/21 12:02:35;;;;;;;;;;;;;;;;;;5053503;28;20257;-58
2022/11/21 12:05:00;;;;;;;;;;;;;;;;;;5054151;28;19916;-59
2022/11/21 12:07:26;;;;;;;;;;;;;;;;;;5054589;28;19979;-59
2022/11/21 12:09:52;;;;;;;;;;;;;;;;;;5053613;28;19958;-58
2022/11/21 12:12:18;;;;;;;;;;;;;;;;;;5052048;28;19912;-58
2022/11/21 12:17:29;;;;;;;;;;;;;;;;;;5052367;28;19920;-57
2022/11/21 12:19:55;;;;;;;;;;;;;;;;;;5053368;28;19912;-58
2022/11/21 12:22:20;;;;;;;;;;;;;;;;;;5054247;28;20035;-58
2022/11/21 12:24:46;;;;;;;;;;;;;;;;;;5054257;28;20050;-58
2022/11/21 12:27:12;;;;;;;;;;;;;;;;;;5054305;28;20549;-58
2022/11/21 12:29:38;;;;;;;;;;;;;;;;;;5054371;28;19947;-58
2022/11/21 12:32:04;;;;;;;;;;;;;;;;;;5053905;28;20532;-59
2022/11/21 12:34:30;;;;;;;;;;;;;;;;;;5054728;28;19916;-58
2022/11/21 12:36:56;;;;;;;;;;;;;;;;;;5054352;28;20355;-59
2022/11/21 12:39:22;;;;;;;;;;;;;;;;;;5053825;28;19964;-58
2022/11/21 12:44:32;;;;;;;;;;;;;;;;;;5053840;28;19920;-58
2022/11/21 12:46:58;;;;;;;;;;;;;;;;;;5052753;28;19916;-58
2022/11/21 12:54:54;;;;;;;;;;;;;;;;;;5046491;28;20276;-58
2022/11/21 12:57:20;;;;;;;;;;;;;;;;;;5053090;28;19916;-58
2022/11/21 12:59:46;;;;;;;;;;;;;;;;;;5053639;28;19912;-58
2022/11/21 13:02:12;;;;;;;;;;;;;;;;;;5053249;28;19913;-58
2022/11/21 13:04:37;;;;;;;;;;;;;;;;;;5053277;28;19948;-58
2022/11/21 13:07:03;;;;;;;;;;;;;;;;;;5052090;28;19943;-58
2022/11/21 13:09:29;;;;;;;;;;;;;;;;;;5053630;28;19944;-58
2022/11/21 13:11:58;;;;;;;;;;;;;;;;;;5052938;28;19913;-56
2022/11/21 13:14:24;;;;;;;;;;;;;;;;;;5053395;28;19956;-57
2022/11/21 13:16:50;;;;;;;;;;;;;;;;;;5053462;28;20426;-58
2022/11/21 13:19:16;;;;;;;;;;;;;;;;;;5052950;28;19917;-58
2022/11/21 13:21:42;;;;;;;;;;;;;;;;;;5052955;28;19944;-58
2022/11/21 13:24:08;;;;;;;;;;;;;;;;;;5052253;28;20019;-58
2022/11/21 13:26:34;;;;;;;;;;;;;;;;;;5052560;28;19964;-58
2022/11/21 13:29:00;;;;;;;;;;;;;;;;;;5053121;28;20011;-58
2022/11/21 13:31:25;;;;;;;;;;;;;;;;;;5052685;28;20019;-58
2022/11/21 13:33:51;;;;;;;;;;;;;;;;;;5053285;28;19909;-58
2022/11/21 13:36:17;;;;;;;;;;;;;;;;;;5047976;28;19920;-57
2022/11/21 13:38:43;;;;;;;;;;;;;;;;;;5049930;28;19944;-57
2022/11/21 13:43:54;;;;;;;;;;;;;;;;;;5052260;28;19985;-58
2022/11/21 13:46:20;;;;;;;;;;;;;;;;;;5051444;28;19968;-58
2022/11/21 13:48:46;;;;;;;;;;;;;;;;;;5052860;28;19931;-57
2022/11/21 13:51:12;;;;;;;;;;;;;;;;;;5051138;28;19913;-58
2022/11/21 13:53:38;;;;;;;;;;;;;;;;;;5046754;28;20013;-58
2022/11/21 13:56:04;;;;;;;;;;;;;;;;;;5052324;28;20118;-58
2022/11/21 13:58:30;;;;;;;;;;;;;;;;;;5052651;28;19924;-57
2022/11/21 14:00:56;;;;;;;;;;;;;;;;;;5051327;28;19921;-58
2022/11/21 14:03:22;;;;;;;;;;;;;;;;;;5052298;28;19974;-58
2022/11/21 14:05:48;;;;;;;;;;;;;;;;;;5051825;28;19917;-58
2022/11/21 14:08:14;;;;;;;;;;;;;;;;;;5051436;28;20253;-59
2022/11/21 14:10:41;;;;;;;;;;;;;;;;;;5050253;28;19983;-58
2022/11/21 14:13:07;;;;;;;;;;;;;;;;;;5047139;28;20242;-58
2022/11/21 14:15:33;;;;;;;;;;;;;;;;;;5052161;28;19967;-58
2022/11/21 14:18:00;;;;;;;;;;;;;;;;;;5051312;28;19912;-56
2022/11/21 14:20:25;;;;;;;;;;;;;;;;;;5051465;28;19913;-57
2022/11/21 14:22:52;;;;;;;;;;;;;;;;;;5052340;28;19998;-58
2022/11/21 14:25:17;;;;;;;;;;;;;;;;;;5052122;28;19909;-59
2022/11/21 14:27:43;;;;;;;;;;;;;;;;;;5050223;28;20016;-58
2022/11/21 14:30:09;;;;;;;;;;;;;;;;;;5051547;28;19962;-58
2022/11/21 14:32:35;;;;;;;;;;;;;;;;;;5048411;28;19920;-58
2022/11/21 14:35:01;;;;;;;;;;;;;;;;;;5048860;28;19971;-58
2022/11/21 14:37:27;;;;;;;;;;;;;;;;;;5044965;28;19913;-58
2022/11/21 14:39:54;;;;;;;;;;;;;;;;;;5047739;28;19913;-58
2022/11/21 14:42:19;;;;;;;;;;;;;;;;;;5049955;28;19921;-58
2022/11/21 14:44:45;;;;;;;;;;;;;;;;;;5046545;28;20324;-58
2022/11/21 14:47:12;;;;;;;;;;;;;;;;;;5045246;28;19921;-58
2022/11/21 14:49:37;;;;;;;;;;;;;;;;;;5050342;28;19912;-58
2022/11/21 14:52:03;;;;;;;;;;;;;;;;;;5050346;28;20676;-58
2022/11/21 14:54:29;;;;;;;;;;;;;;;;;;5050190;28;19921;-58
2022/11/21 14:56:55;;;;;;;;;;;;;;;;;;5050331;28;19956;-58
2022/11/21 14:59:21;;;;;;;;;;;;;;;;;;5047957;28;19941;-58
2022/11/21 15:01:47;;;;;;;;;;;;;;;;;;5046300;28;19947;-58
2022/11/21 15:04:13;;;;;;;;;;;;;;;;;;5050414;28;20000;-57
2022/11/21 15:06:39;;;;;;;;;;;;;;;;;;5049809;28;19921;-58
2022/11/21 15:09:05;;;;;;;;;;;;;;;;;;5050072;28;19951;-58
2022/11/21 15:11:31;;;;;;;;;;;;;;;;;;5050124;28;19967;-58
2022/11/21 15:13:57;;;;;;;;;;;;;;;;;;5050151;28;19927;-57
2022/11/21 15:16:22;;;;;;;;;;;;;;;;;;5049780;28;19970;-58
2022/11/21 15:18:48;;;;;;;;;;;;;;;;;;5050461;28;19955;-58
2022/11/21 15:21:15;;;;;;;;;;;;;;;;;;5048783;28;20268;-57
2022/11/21 15:23:43;;;;;;;;;;;;;;;;;;5047823;28;19990;-58
2022/11/21 15:26:08;;;;;;;;;;;;;;;;;;5050100;28;19916;-57
2022/11/21 15:28:34;;;;;;;;;;;;;;;;;;5049709;28;19935;-58
2022/11/21 15:31:00;;;;;;;;;;;;;;;;;;5045561;28;19921;-57
2022/11/21 15:33:26;;;;;;;;;;;;;;;;;;5047190;28;20007;-57
2022/11/21 15:35:52;;;;;;;;;;;;;;;;;;5050391;28;20000;-59
2022/11/21 15:38:18;;;;;;;;;;;;;;;;;;5050429;28;19952;-58
2022/11/21 15:40:44;;;;;;;;;;;;;;;;;;5050104;28;19955;-58
2022/11/21 15:43:10;;;;;;;;;;;;;;;;;;5050062;28;19956;-58
2022/11/21 15:45:36;;;;;;;;;;;;;;;;;;5048808;28;19917;-58
2022/11/21 15:48:05;;;;;;;;;;;;;;;;;;5048673;28;20369;-57
2022/11/21 15:50:33;;;;;;;;;;;;;;;;;;5048992;28;20388;-58
2022/11/21 15:52:59;;;;;;;;;;;;;;;;;;5046341;28;19913;-57
2022/11/21 15:55:25;;;;;;;;;;;;;;;;;;5036772;28;20411;-58
2022/11/21 15:57:51;;;;;;;;;;;;;;;;;;5049323;28;19920;-58
2022/11/21 16:00:17;;;;;;;;;;;;;;;;;;5048751;28;19913;-58
2022/11/21 16:02:43;;;;;;;;;;;;;;;;;;5043115;28;19912;-58
2022/11/21 16:05:09;;;;;;;;;;;;;;;;;;5045679;28;19920;-58
2022/11/21 16:07:35;;;;;;;;;;;;;;;;;;5047338;28;20285;-60
2022/11/21 16:10:01;;;;;;;;;;;;;;;;;;5040296;28;19960;-59
2022/11/21 16:12:26;;;;;;;;;;;;;;;;;;5043048;28;19943;-58
2022/11/21 16:14:52;;;;;;;;;;;;;;;;;;5016272;28;19926;-59
2022/11/21 16:17:18;;;;;;;;;;;;;;;;;;5009480;28;19920;-58
2022/11/21 16:19:44;;;;;;;;;;;;;;;;;;5009092;28;19940;-58
2022/11/21 16:22:10;;;;;;;;;;;;;;;;;;5013390;28;19957;-58
2022/11/21 16:24:36;;;;;;;;;;;;;;;;;;5013514;28;19919;-57
2022/11/21 16:27:02;;;;;;;;;;;;;;;;;;5014108;28;19923;-59
2022/11/21 16:29:28;;;;;;;;;;;;;;;;;;5011747;28;19968;-59
2022/11/21 16:31:54;;;;;;;;;;;;;;;;;;5010617;28;19957;-58
2022/11/21 16:34:21;;;;;;;;;;;;;;;;;;5013615;28;19913;-58
2022/11/21 16:36:47;;;;;;;;;;;;;;;;;;5013659;28;20357;-59
2022/11/21 16:39:13;;;;;;;;;;;;;;;;;;5013913;28;19955;-57
2022/11/21 16:41:39;;;;;;;;;;;;;;;;;;5011760;28;20380;-59
2022/11/21 16:44:05;;;;;;;;;;;;;;;;;;5014152;28;19914;-57
2022/11/21 16:46:31;;;;;;;;;;;;;;;;;;5010980;28;20470;-59
2022/11/21 16:48:58;;;;;;;;;;;;;;;;;;5011674;28;19914;-57
2022/11/21 16:51:24;;;;;;;;;;;;;;;;;;5008482;28;19913;-57
2022/11/21 16:53:49;;;;;;;;;;;;;;;;;;5009571;28;20580;-59
2022/11/21 16:56:15;;;;;;;;;;;;;;;;;;5008387;28;19921;-58
2022/11/21 16:58:41;;;;;;;;;;;;;;;;;;5008807;28;19949;-59
2022/11/21 17:01:09;;;;;;;;;;;;;;;;;;5007831;28;19952;-59
2022/11/21 17:03:35;;;;;;;;;;;;;;;;;;5010086;28;19913;-59
2022/11/21 17:06:01;;;;;;;;;;;;;;;;;;5008605;28;19964;-58
2022/11/21 17:08:27;;;;;;;;;;;;;;;;;;5010686;28;20370;-58
2022/11/21 17:10:53;;;;;;;;;;;;;;;;;;5010497;28;19937;-58
2022/11/21 17:13:19;;;;;;;;;;;;;;;;;;5007506;28;19925;-58